TimeEDT,TemperatureF,Dew PointF,Humidity,Sea Level PressureIn,VisibilityMPH,Wind Direction,Wind SpeedMPH,Gust SpeedMPH,PrecipitationIn,Events,Conditions,WindDirDegrees,DateUTC
1:51 AM,60.8,53.6,77,29.95,10.0,SSW,17.3,34.5,N/A,,Overcast,200,2012-10-14 05:51:00
2:51 AM,63.0,55.0,75,29.94,10.0,SSW,23.0,32.2,N/A,,Overcast,200,2012-10-14 06:51:00
3:51 AM,64.0,54.0,70,29.93,10.0,SSW,21.9,31.1,N/A,,Overcast,200,2012-10-14 07:51:00
4:51 AM,64.0,53.1,67,29.93,10.0,SSW,20.7,31.1,N/A,,Overcast,200,2012-10-14 08:51:00
5:51 AM,64.9,54.0,68,29.92,10.0,SSW,23.0,31.1,N/A,,Scattered Clouds,200,2012-10-14 09:51:00
6:51 AM,64.9,55.0,70,29.93,10.0,SSW,24.2,31.1,N/A,,Overcast,210,2012-10-14 10:51:00
7:51 AM,64.0,55.0,73,29.93,10.0,SSW,17.3,26.5,N/A,,Overcast,200,2012-10-14 11:51:00
8:51 AM,64.9,55.0,70,29.94,10.0,SSW,16.1,33.4,0.00,Rain,Light Rain,200,2012-10-14 12:51:00
9:51 AM,66.9,55.9,68,29.92,10.0,South,20.7,33.4,0.00,,Scattered Clouds,190,2012-10-14 13:51:00
10:51 AM,69.1,55.9,63,29.90,10.0,South,23.0,31.1,N/A,,Clear,180,2012-10-14 14:51:00
11:51 AM,71.1,57.0,61,29.87,10.0,South,20.7,31.1,N/A,,Clear,190,2012-10-14 15:51:00
12:51 PM,73.0,57.0,57,29.85,10.0,South,19.6,32.2,N/A,,Clear,190,2012-10-14 16:51:00
1:51 PM,73.9,57.0,55,29.80,10.0,SSW,18.4,31.1,N/A,,Clear,200,2012-10-14 17:51:00
2:51 PM,73.9,55.9,53,29.75,10.0,South,25.3,32.2,N/A,,Clear,190,2012-10-14 18:51:00
3:51 PM,75.0,55.0,50,29.72,10.0,South,21.9,36.8,N/A,,Clear,190,2012-10-14 19:51:00
4:51 PM,75.0,55.0,50,29.71,10.0,SSW,23.0,29.9,N/A,,Mostly Cloudy,200,2012-10-14 20:51:00
5:51 PM,73.0,54.0,51,29.70,10.0,South,15.0,28.8,N/A,,Overcast,190,2012-10-14 21:51:00
6:51 PM,72.0,55.0,55,29.69,10.0,South,13.8,26.5,0.00,,Overcast,190,2012-10-14 22:51:00
7:51 PM,66.0,59.0,78,29.67,10.0,South,13.8,23.0,0.01,Rain,Light Rain,180,2012-10-14 23:51:00
8:51 PM,66.0,57.9,75,29.65,10.0,South,17.3,26.5,0.00,,Mostly Cloudy,180,2012-10-15 00:51:00
9:51 PM,68.0,55.9,65,29.61,10.0,South,15.0,23.0,N/A,,Overcast,180,2012-10-15 01:51:00
10:51 PM,70.0,55.0,59,29.59,10.0,SSW,25.3,34.5,0.00,,Overcast,200,2012-10-15 02:51:00
11:51 PM,64.0,57.0,78,29.58,10.0,SSW,18.4,28.8,0.00,,Mostly Cloudy,200,2012-10-15 03:51:00